createdAt,value
2022-09-17T00:01:31.270Z,11.54
2022-09-17T00:04:04.266Z,11.44
2022-09-17T00:06:33.800Z,11.28
2022-09-17T00:09:01.637Z,11.38
2022-09-17T00:11:32.192Z,11.22
2022-09-17T00:14:01.661Z,11.20
2022-09-17T00:16:32.226Z,11.27
2022-09-17T00:19:02.086Z,11.12
2022-09-17T00:21:31.121Z,11.16
2022-09-17T00:24:00.806Z,11.18
2022-09-17T00:26:30.716Z,11.11
2022-09-17T00:28:59.519Z,11.15
2022-09-17T00:31:28.407Z,11.01
2022-09-17T00:33:56.621Z,11.17
2022-09-17T00:36:26.073Z,11.20
2022-09-17T00:38:55.739Z,11.26
2022-09-17T00:41:25.473Z,11.21
2022-09-17T00:43:55.317Z,11.23
2022-09-17T00:46:31.407Z,11.26
2022-09-17T00:49:01.520Z,11.26
2022-09-17T00:51:36.796Z,11.28
2022-09-17T00:54:07.328Z,11.33
2022-09-17T00:56:37.501Z,11.33
2022-09-17T00:59:05.596Z,11.49
2022-09-17T01:01:33.921Z,11.46
2022-09-17T01:04:01.597Z,11.47
2022-09-17T01:06:35.742Z,11.48
2022-09-17T01:09:19.931Z,11.46
2022-09-17T01:12:13.786Z,11.53
2022-09-17T01:14:54.129Z,11.42
2022-09-17T01:17:30.240Z,11.29
2022-09-17T01:20:37.308Z,11.17
2022-09-17T01:23:39.692Z,11.16
2022-09-17T01:26:32.606Z,11.02
2022-09-17T01:29:13.594Z,11.06
2022-09-17T01:31:49.488Z,11.06
2022-09-17T01:34:27.224Z,11.02
2022-09-17T01:37:04.800Z,11.13
2022-09-17T01:39:43.586Z,11.21
2022-09-17T01:42:18.677Z,11.29
2022-09-17T01:44:54.794Z,11.17
2022-09-17T01:47:27.799Z,11.19
2022-09-17T01:50:01.028Z,11.15
2022-09-17T01:52:31.119Z,11.07
2022-09-17T01:55:04.791Z,11.10
2022-09-17T01:57:36.587Z,11.03
2022-09-17T02:00:10.043Z,10.98
2022-09-17T02:02:44.019Z,11.04
2022-09-17T02:05:17.413Z,10.84
2022-09-17T02:07:51.551Z,10.88
2022-09-17T02:10:23.450Z,10.71
2022-09-17T02:13:01.205Z,10.80
2022-09-17T02:15:32.511Z,10.65
2022-09-17T02:18:07.982Z,10.56
2022-09-17T02:20:42.171Z,10.60
2022-09-17T02:23:15.492Z,10.46
2022-09-17T02:25:48.652Z,10.50
2022-09-17T02:28:25.416Z,10.42
2022-09-17T02:30:53.277Z,10.49
2022-09-17T02:33:23.929Z,10.49
2022-09-17T02:35:52.091Z,10.34
2022-09-17T02:38:23.650Z,10.50
2022-09-17T02:40:57.198Z,10.49
2022-09-17T02:43:38.276Z,10.46
2022-09-17T02:46:20.933Z,10.50
2022-09-17T02:49:18.615Z,10.40
2022-09-17T02:51:54.547Z,10.44
2022-09-17T02:54:27.989Z,10.34
2022-09-17T02:57:07.217Z,10.33
2022-09-17T02:59:42.376Z,10.33
2022-09-17T03:02:18.287Z,10.19
2022-09-17T03:04:49.574Z,10.21
2022-09-17T03:07:20.037Z,10.27
2022-09-17T03:09:47.694Z,10.26
2022-09-17T03:12:15.415Z,10.26
2022-09-17T03:14:43.087Z,10.29
2022-09-17T03:17:12.035Z,10.25
2022-09-17T03:19:39.693Z,10.31
2022-09-17T03:22:08.807Z,10.32
2022-09-17T03:24:36.913Z,10.31
2022-09-17T03:27:04.790Z,10.28
2022-09-17T03:29:32.632Z,10.29
2022-09-17T03:32:00.989Z,10.25
2022-09-17T03:34:28.702Z,10.26
2022-09-17T03:36:56.428Z,10.19
2022-09-17T03:39:25.658Z,10.24
2022-09-17T03:41:53.416Z,10.21
2022-09-17T03:44:22.973Z,10.24
2022-09-17T03:46:51.279Z,10.19
2022-09-17T03:49:19.052Z,10.25
2022-09-17T03:51:46.751Z,10.17
2022-09-17T03:54:14.453Z,10.32
2022-09-17T03:56:43.534Z,10.21
2022-09-17T03:59:11.268Z,10.24
2022-09-17T04:01:39.654Z,10.08
2022-09-17T04:04:07.876Z,9.99
2022-09-17T04:06:35.951Z,9.94
2022-09-17T04:09:05.083Z,9.90
2022-09-17T04:11:32.853Z,9.84
2022-09-17T04:14:01.994Z,9.91
2022-09-17T04:16:29.747Z,9.76
2022-09-17T04:18:57.877Z,9.69
2022-09-17T04:21:25.672Z,9.75
2022-09-17T04:23:53.636Z,9.73
2022-09-17T04:26:21.308Z,9.73
2022-09-17T04:28:49.142Z,9.71
2022-09-17T04:31:18.332Z,9.70
2022-09-17T04:33:46.108Z,9.69
2022-09-17T04:36:13.776Z,9.69
2022-09-17T04:38:41.533Z,9.68
2022-09-17T04:41:10.056Z,9.72
2022-09-17T04:43:37.837Z,9.80
2022-09-17T04:46:05.778Z,9.71
2022-09-17T04:48:34.818Z,9.66
2022-09-17T04:51:02.496Z,9.76
2022-09-17T04:53:30.186Z,9.62
2022-09-17T04:55:57.857Z,9.66
2022-09-17T04:58:25.759Z,9.66
2022-09-17T05:00:53.652Z,9.57
2022-09-17T05:03:21.805Z,9.57
2022-09-17T05:05:50.854Z,9.61
2022-09-17T05:08:18.563Z,9.50
2022-09-17T05:10:46.568Z,9.51
2022-09-17T05:13:14.210Z,9.46
2022-09-17T05:15:42.313Z,9.45
2022-09-17T05:18:10.074Z,9.36
2022-09-17T05:20:38.699Z,9.48
2022-09-17T05:23:07.896Z,9.46
2022-09-17T05:25:35.573Z,9.48
2022-09-17T05:28:03.530Z,9.51
2022-09-17T05:30:31.227Z,9.39
2022-09-17T05:33:03.157Z,9.45
2022-09-17T05:35:31.579Z,9.57
2022-09-17T05:38:01.400Z,9.50
2022-09-17T05:40:31.369Z,9.51
2022-09-17T05:43:00.475Z,9.62
2022-09-17T05:45:28.285Z,9.63
2022-09-17T05:47:57.431Z,9.69
2022-09-17T05:50:25.508Z,9.63
2022-09-17T05:52:53.857Z,9.68
2022-09-17T05:55:23.128Z,9.69
2022-09-17T05:57:52.572Z,9.70
2022-09-17T06:00:20.454Z,9.71
2022-09-17T06:02:48.187Z,9.82
2022-09-17T06:05:15.933Z,9.92
2022-09-17T06:07:43.602Z,9.90
2022-09-17T06:10:11.319Z,10.08
2022-09-17T06:12:39.054Z,10.15
2022-09-17T06:15:09.099Z,10.34
2022-09-17T06:17:37.349Z,10.27
2022-09-17T06:20:06.289Z,10.35
2022-09-17T06:22:34.057Z,10.50
2022-09-17T06:25:03.751Z,10.37
2022-09-17T06:27:32.935Z,10.42
2022-09-17T06:30:00.646Z,10.65
2022-09-17T06:32:29.814Z,10.69
2022-09-17T06:34:58.008Z,10.77
2022-09-17T06:37:29.765Z,10.92
2022-09-17T06:39:57.938Z,10.55
2022-09-17T06:42:25.942Z,10.58
2022-09-17T06:44:53.620Z,10.49
2022-09-17T06:47:21.746Z,10.60
2022-09-17T06:49:51.586Z,10.64
2022-09-17T06:52:19.314Z,10.56
2022-09-17T06:54:47.020Z,10.69
2022-09-17T06:57:15.237Z,10.61
2022-09-17T06:59:42.987Z,10.72
2022-09-17T07:02:10.902Z,10.79
2022-09-17T07:04:38.928Z,10.81
2022-09-17T07:07:09.080Z,10.76
2022-09-17T07:09:36.774Z,10.62
2022-09-17T07:12:09.120Z,10.64
2022-09-17T07:14:37.303Z,10.86
2022-09-17T07:17:05.180Z,10.79
2022-09-17T07:19:32.926Z,10.93
2022-09-17T07:22:00.920Z,10.88
2022-09-17T07:24:32.872Z,10.62
2022-09-17T07:27:00.624Z,10.52
2022-09-17T07:29:28.725Z,10.47
2022-09-17T07:31:58.445Z,10.31
2022-09-17T07:34:28.027Z,10.31
2022-09-17T07:36:55.728Z,10.01
2022-09-17T07:39:23.741Z,9.99
2022-09-17T07:41:52.782Z,10.32
2022-09-17T07:44:22.097Z,10.50
2022-09-17T07:46:49.951Z,10.48
2022-09-17T07:49:17.678Z,10.70
2022-09-17T07:51:45.537Z,10.82
2022-09-17T07:54:13.189Z,11.14
2022-09-17T07:56:40.905Z,11.35
2022-09-17T07:59:10.122Z,11.35
2022-09-17T08:01:38.015Z,11.42
2022-09-17T08:04:06.094Z,11.63
2022-09-17T08:06:38.844Z,11.25
2022-09-17T08:09:07.049Z,11.85
2022-09-17T08:14:29.096Z,12.56
2022-09-17T08:16:57.237Z,14.58
2022-09-17T08:19:25.479Z,15.51
2022-09-17T08:21:53.275Z,16.49
2022-09-17T08:24:20.936Z,16.29
2022-09-17T08:26:49.247Z,14.98
2022-09-17T08:29:16.950Z,14.73
2022-09-17T08:31:46.031Z,15.20
2022-09-17T08:34:14.649Z,15.06
2022-09-17T08:36:42.294Z,13.82
2022-09-17T08:39:12.126Z,13.58
2022-09-17T08:41:52.417Z,13.07
2022-09-17T08:44:26.389Z,13.57
2022-09-17T08:47:01.761Z,13.17
2022-09-17T08:49:36.330Z,12.92
2022-09-17T08:52:47.374Z,14.71
2022-09-17T08:55:29.124Z,14.71
2022-09-17T08:58:06.269Z,14.50
2022-09-17T09:00:43.408Z,13.78
2022-09-17T09:03:26.608Z,13.16
2022-09-17T09:05:56.350Z,14.05
2022-09-17T09:08:30.469Z,14.86
2022-09-17T09:11:00.973Z,15.14
2022-09-17T09:13:32.447Z,16.28
2022-09-17T09:16:03.274Z,16.45
2022-09-17T09:18:37.471Z,16.68
2022-09-17T09:21:19.366Z,15.50
2022-09-17T09:23:56.918Z,14.79
2022-09-17T09:26:34.303Z,14.27
2022-09-17T09:29:07.107Z,13.57
2022-09-17T09:32:15.247Z,13.80
2022-09-17T09:34:47.074Z,13.63
2022-09-17T09:37:18.958Z,14.01
2022-09-17T09:39:49.203Z,14.78
2022-09-17T09:42:24.764Z,14.89
2022-09-17T09:44:52.650Z,15.20
2022-09-17T09:47:32.334Z,15.33
2022-09-17T09:50:19.706Z,15.64
2022-09-17T09:53:00.381Z,17.10
2022-09-17T09:55:52.899Z,17.71
2022-09-17T09:58:32.097Z,17.50
2022-09-17T10:00:59.771Z,18.76
2022-09-17T10:03:32.066Z,18.48
2022-09-17T10:06:03.233Z,19.22
2022-09-17T10:08:32.978Z,18.30
2022-09-17T10:11:02.707Z,18.60
2022-09-17T10:13:32.267Z,16.25
2022-09-17T10:16:17.789Z,15.62
2022-09-17T10:18:46.200Z,15.63
2022-09-17T10:21:23.377Z,16.07
2022-09-17T10:23:51.948Z,15.91
2022-09-17T10:26:25.491Z,15.97
2022-09-17T10:28:56.119Z,15.33
2022-09-17T10:31:24.330Z,14.09
2022-09-17T10:33:54.555Z,14.27
2022-09-17T10:36:43.796Z,14.36
2022-09-17T10:39:36.698Z,14.12
2022-09-17T10:42:06.643Z,14.31
2022-09-17T10:44:36.305Z,14.43
2022-09-17T10:47:13.195Z,14.15
2022-09-17T10:49:43.591Z,14.08
2022-09-17T10:52:24.658Z,14.27
2022-09-17T10:55:17.406Z,13.90
2022-09-17T10:58:01.210Z,14.16
2022-09-17T11:00:36.160Z,14.43
2022-09-17T11:03:45.648Z,14.30
2022-09-17T11:06:51.802Z,15.28
2022-09-17T11:09:35.829Z,15.69
2022-09-17T11:12:19.397Z,16.33
2022-09-17T11:14:51.731Z,16.52
2022-09-17T11:17:36.243Z,16.07
2022-09-17T11:20:08.153Z,15.75
2022-09-17T11:22:52.029Z,16.71
2022-09-17T11:25:38.653Z,16.21
2022-09-17T11:28:14.676Z,15.79
2022-09-17T11:30:54.369Z,15.24
2022-09-17T11:33:47.903Z,15.45
2022-09-17T11:36:22.020Z,15.59
2022-09-17T11:38:51.123Z,15.77
2022-09-17T11:41:23.803Z,15.43
2022-09-17T11:44:05.997Z,15.13
2022-09-17T11:46:36.259Z,14.79
2022-09-17T11:49:08.015Z,14.90
2022-09-17T11:51:39.110Z,15.47
2022-09-17T11:54:16.548Z,16.76
2022-09-17T11:56:49.138Z,16.97
2022-09-17T11:59:24.887Z,17.21
2022-09-17T12:01:58.636Z,18.48
2022-09-17T12:04:41.717Z,19.45
2022-09-17T12:07:31.329Z,19.98
2022-09-17T12:10:10.206Z,20.40
2022-09-17T12:12:50.154Z,21.24
2022-09-17T12:15:22.368Z,22.17
2022-09-17T12:18:03.846Z,21.64
2022-09-17T12:20:44.828Z,20.34
2022-09-17T12:23:17.070Z,18.52
2022-09-17T12:25:52.467Z,18.51
2022-09-17T12:28:27.320Z,17.01
2022-09-17T12:31:03.435Z,16.20
2022-09-17T12:33:40.894Z,15.42
2022-09-17T12:36:40.210Z,15.42
2022-09-17T12:39:32.186Z,15.27
2022-09-17T12:42:08.319Z,15.74
2022-09-17T12:44:56.426Z,16.23
2022-09-17T12:47:57.884Z,16.00
2022-09-17T12:50:38.863Z,15.55
2022-09-17T12:53:22.478Z,15.65
2022-09-17T12:56:14.222Z,15.54
2022-09-17T12:58:57.070Z,15.52
2022-09-17T13:01:32.015Z,14.65
2022-09-17T13:04:11.792Z,15.41
2022-09-17T13:07:22.148Z,15.01
2022-09-17T13:10:10.964Z,15.29
2022-09-17T13:12:41.615Z,15.60
2022-09-17T13:15:43.106Z,15.04
2022-09-17T13:18:26.565Z,14.42
2022-09-17T13:21:05.477Z,14.23
2022-09-17T13:23:36.969Z,14.58
2022-09-17T13:26:06.792Z,14.76
2022-09-17T13:28:43.309Z,14.90
2022-09-17T13:31:15.120Z,15.63
2022-09-17T13:34:00.643Z,14.66
2022-09-17T13:36:48.578Z,16.58
2022-09-17T13:39:41.351Z,17.55
2022-09-17T13:42:14.672Z,17.46
2022-09-17T13:44:45.497Z,15.79
2022-09-17T13:47:20.902Z,14.44
2022-09-17T13:49:54.822Z,14.23
2022-09-17T13:52:41.607Z,14.13
2022-09-17T13:55:10.610Z,14.27
2022-09-17T13:57:51.667Z,14.19
2022-09-17T14:00:48.924Z,14.56
2022-09-17T14:03:54.493Z,13.90
2022-09-17T14:06:51.556Z,14.23
2022-09-17T14:09:54.093Z,14.17
2022-09-17T14:13:02.930Z,13.96
2022-09-17T14:16:00.255Z,14.85
2022-09-17T14:18:39.199Z,14.41
2022-09-17T14:21:14.655Z,14.22
2022-09-17T14:23:51.036Z,14.19
2022-09-17T14:26:32.823Z,13.62
2022-09-17T14:29:08.815Z,13.46
2022-09-17T14:31:38.095Z,13.26
2022-09-17T14:34:07.644Z,13.05
2022-09-17T14:36:39.447Z,12.52
2022-09-17T14:39:16.055Z,12.64
2022-09-17T14:41:45.759Z,12.45
2022-09-17T14:44:17.250Z,12.24
2022-09-17T14:46:53.250Z,11.88
2022-09-17T14:49:23.694Z,11.95
2022-09-17T14:51:52.373Z,12.21
2022-09-17T14:54:24.809Z,12.10
2022-09-17T14:56:56.839Z,12.16
2022-09-17T14:59:41.939Z,12.20
2022-09-17T15:02:32.877Z,12.13
2022-09-17T15:05:02.027Z,12.40
2022-09-17T15:07:29.792Z,12.61
2022-09-17T15:10:10.212Z,13.19
2022-09-17T15:12:39.993Z,13.53
2022-09-17T15:15:12.860Z,13.95
2022-09-17T15:17:43.647Z,14.45
2022-09-17T15:20:17.138Z,14.48
2022-09-17T15:22:47.220Z,13.59
2022-09-17T15:25:23.834Z,13.86
2022-09-17T15:27:55.910Z,13.57
2022-09-17T15:30:25.368Z,13.60
2022-09-17T15:32:55.520Z,13.60
2022-09-17T15:35:28.253Z,13.87
2022-09-17T15:38:21.794Z,13.68
2022-09-17T15:40:47.457Z,14.02
2022-09-17T15:43:19.675Z,14.59
2022-09-17T15:45:47.514Z,15.46
2022-09-17T15:48:37.492Z,15.27
2022-09-17T15:51:07.646Z,16.05
2022-09-17T15:53:36.778Z,16.28
2022-09-17T15:56:09.422Z,15.87
2022-09-17T15:58:52.279Z,15.94
2022-09-17T16:01:56.387Z,15.71
2022-09-17T16:04:30.186Z,15.09
2022-09-17T16:07:28.168Z,14.64
2022-09-17T16:09:59.188Z,13.92
2022-09-17T16:12:29.983Z,13.58
2022-09-17T16:15:01.043Z,13.45
2022-09-17T16:17:44.253Z,13.36
2022-09-17T16:20:18.332Z,13.31
2022-09-17T16:22:47.952Z,13.25
2022-09-17T16:25:16.257Z,13.20
2022-09-17T16:27:49.918Z,13.18
2022-09-17T16:30:19.766Z,13.21
2022-09-17T16:32:48.014Z,13.37
2022-09-17T16:35:17.653Z,13.53
2022-09-17T16:37:48.572Z,13.17
2022-09-17T16:40:16.455Z,13.35
2022-09-17T16:42:44.165Z,13.50
2022-09-17T16:45:14.236Z,13.49
2022-09-17T16:47:43.170Z,13.08
2022-09-17T16:50:13.664Z,12.96
2022-09-17T16:52:42.156Z,12.99
2022-09-17T16:55:13.455Z,13.15
2022-09-17T16:57:41.230Z,13.10
2022-09-17T17:00:12.501Z,13.08
2022-09-17T17:02:41.743Z,12.84
2022-09-17T17:05:10.554Z,12.67
2022-09-17T17:07:38.658Z,12.59
2022-09-17T17:10:09.387Z,12.75
2022-09-17T17:12:37.766Z,12.63
2022-09-17T17:15:07.010Z,12.64
2022-09-17T17:17:35.846Z,12.59
2022-09-17T17:20:07.703Z,12.68
2022-09-17T17:22:36.936Z,12.53
2022-09-17T17:25:05.532Z,12.45
2022-09-17T17:27:33.268Z,12.33
2022-09-17T17:30:04.433Z,12.42
2022-09-17T17:32:32.090Z,12.51
2022-09-17T17:35:00.058Z,12.42
2022-09-17T17:37:29.350Z,12.36
2022-09-17T17:39:58.333Z,12.38
2022-09-17T17:42:26.062Z,12.36
2022-09-17T17:44:55.567Z,12.31
2022-09-17T17:47:23.293Z,12.32
2022-09-17T17:49:51.352Z,12.29
2022-09-17T17:52:19.077Z,12.29
2022-09-17T17:54:48.167Z,12.40
2022-09-17T17:57:15.927Z,12.42
2022-09-17T17:59:43.727Z,12.18
2022-09-17T18:02:12.033Z,12.20
2022-09-17T18:04:39.879Z,12.14
2022-09-17T18:07:08.548Z,12.13
2022-09-17T18:09:36.421Z,12.01
2022-09-17T18:12:06.002Z,12.00
2022-09-17T18:14:33.812Z,11.96
2022-09-17T18:17:01.552Z,11.91
2022-09-17T18:19:29.290Z,11.99
2022-09-17T18:21:56.995Z,11.90
2022-09-17T18:24:24.688Z,11.87
2022-09-17T18:26:52.402Z,11.85
2022-09-17T18:29:21.800Z,11.86
2022-09-17T18:31:49.723Z,11.89
2022-09-17T18:34:18.061Z,11.93
2022-09-17T18:36:50.791Z,12.02
2022-09-17T18:42:08.875Z,12.05
2022-09-17T18:44:38.370Z,12.04
2022-09-17T18:47:06.473Z,12.02
2022-09-17T18:49:34.215Z,12.10
2022-09-17T18:52:02.086Z,12.05
2022-09-17T18:54:29.741Z,12.08
2022-09-17T18:56:57.557Z,12.08
2022-09-17T18:59:25.586Z,12.16
2022-09-17T19:01:54.777Z,12.03
2022-09-17T19:04:22.951Z,12.01
2022-09-17T19:06:50.717Z,12.03
2022-09-17T19:09:18.460Z,12.04
2022-09-17T19:11:46.473Z,12.03
2022-09-17T19:14:14.172Z,12.08
2022-09-17T19:16:41.867Z,11.95
2022-09-17T19:19:10.949Z,11.91
2022-09-17T19:21:39.149Z,11.89
2022-09-17T19:24:07.190Z,11.92
2022-09-17T19:26:34.917Z,11.91
2022-09-17T19:29:02.765Z,11.90
2022-09-17T19:31:30.683Z,11.96
2022-09-17T19:34:00.003Z,12.19
2022-09-17T19:36:29.138Z,12.21
2022-09-17T19:38:58.595Z,11.78
2022-09-17T19:41:26.635Z,11.50
2022-09-17T19:43:56.786Z,11.38
2022-09-17T19:46:26.745Z,11.16
2022-09-17T19:48:56.073Z,11.16
2022-09-17T19:51:26.764Z,10.82
2022-09-17T19:53:56.161Z,10.65
2022-09-17T19:56:25.625Z,10.45
2022-09-17T19:58:53.713Z,10.42
2022-09-17T20:01:21.770Z,10.36
2022-09-17T20:03:49.923Z,10.37
2022-09-17T20:06:20.638Z,10.11
2022-09-17T20:08:50.573Z,10.08
2022-09-17T20:11:21.419Z,10.00
2022-09-17T20:13:49.362Z,10.08
2022-09-17T20:16:19.270Z,10.22
2022-09-17T20:18:47.903Z,10.26
2022-09-17T20:21:17.501Z,10.18
2022-09-17T20:23:45.591Z,10.23
2022-09-17T20:26:14.529Z,10.28
2022-09-17T20:28:44.707Z,10.29
2022-09-17T20:31:14.656Z,10.40
2022-09-17T20:33:43.242Z,10.30
2022-09-17T20:36:14.445Z,10.30
2022-09-17T20:39:10.433Z,10.20
2022-09-17T20:41:31.590Z,10.19
2022-09-17T20:44:00.932Z,10.23
2022-09-17T20:46:29.930Z,10.14
2022-09-17T20:48:58.656Z,10.34
2022-09-17T20:51:28.384Z,10.39
2022-09-17T20:53:57.061Z,10.40
2022-09-17T20:56:27.202Z,10.41
2022-09-17T20:59:03.420Z,10.23
2022-09-17T21:01:34.609Z,10.32
2022-09-17T21:04:03.412Z,10.32
2022-09-17T21:06:32.721Z,10.30
2022-09-17T21:09:01.371Z,10.23
2022-09-17T21:11:30.899Z,9.99
2022-09-17T21:13:58.992Z,10.13
2022-09-17T21:16:27.267Z,10.13
2022-09-17T21:18:58.928Z,10.02
2022-09-17T21:21:27.217Z,9.99
2022-09-17T21:23:55.266Z,9.93
2022-09-17T21:26:25.436Z,10.12
2022-09-17T21:28:56.314Z,10.04
2022-09-17T21:31:29.659Z,10.10
2022-09-17T21:34:03.621Z,10.02
2022-09-17T21:36:32.981Z,10.02
2022-09-17T21:39:03.327Z,10.00
2022-09-17T21:41:31.179Z,10.03
2022-09-17T21:43:59.119Z,10.03
2022-09-17T21:46:28.566Z,10.09
2022-09-17T21:48:58.195Z,10.16
2022-09-17T21:51:30.514Z,10.10
2022-09-17T21:54:00.720Z,10.12
2022-09-17T21:56:29.997Z,10.03
2022-09-17T21:58:59.304Z,10.09
2022-09-17T22:01:31.031Z,10.13
2022-09-17T22:03:59.820Z,10.26
2022-09-17T22:06:30.582Z,10.23
2022-09-17T22:09:00.593Z,10.20
2022-09-17T22:11:32.077Z,10.07
2022-09-17T22:14:05.131Z,10.20
2022-09-17T22:16:35.891Z,10.11
2022-09-17T22:19:05.798Z,10.14
2022-09-17T22:21:36.998Z,10.22
2022-09-17T22:24:06.663Z,10.23
2022-09-17T22:26:36.143Z,10.19
2022-09-17T22:29:07.133Z,10.17
2022-09-17T22:31:35.577Z,10.22
2022-09-17T22:34:04.014Z,10.29
2022-09-17T22:36:31.692Z,10.30
2022-09-17T22:39:00.842Z,10.31
2022-09-17T22:41:30.654Z,10.23
2022-09-17T22:44:00.323Z,10.27
2022-09-17T22:46:30.184Z,10.17
2022-09-17T22:48:59.072Z,10.02
2022-09-17T22:51:28.538Z,10.29
2022-09-17T22:53:56.718Z,10.21
2022-09-17T22:56:28.073Z,10.25
2022-09-17T22:58:57.336Z,9.96
2022-09-17T23:01:29.140Z,9.89
2022-09-17T23:03:58.332Z,10.02
2022-09-17T23:06:27.574Z,10.13
2022-09-17T23:08:55.555Z,10.17
2022-09-17T23:11:26.433Z,10.25
2022-09-17T23:13:57.617Z,10.21
2022-09-17T23:16:26.261Z,10.18
2022-09-17T23:18:53.993Z,10.15
2022-09-17T23:21:22.785Z,10.20
2022-09-17T23:23:51.545Z,10.09
2022-09-17T23:26:22.065Z,10.11
2022-09-17T23:28:52.468Z,10.07
2022-09-17T23:31:22.313Z,10.13
2022-09-17T23:33:50.293Z,10.01
2022-09-17T23:36:21.018Z,10.04
2022-09-17T23:38:49.973Z,10.04
2022-09-17T23:41:20.933Z,10.09
2022-09-17T23:43:51.637Z,10.17
2022-09-17T23:46:20.668Z,10.08
2022-09-17T23:48:49.532Z,10.00
2022-09-17T23:51:17.547Z,10.02
2022-09-17T23:53:45.710Z,10.01
2022-09-17T23:56:15.141Z,9.74
2022-09-17T23:58:42.962Z,10.02
